Time;durP1;ratioP1;P1;durP2;ratioP2;P2;SDS_P1;SDS_P2;PMS_P1;PMS_P2;Temp;Humidity;BMP_temperature;BMP_pressure;BME280_temperature;BME280_humidity;BME280_pressure;Samples;Min_cycle;Max_cycle;Signal;HPM_P1;HPM_P2
2022/05/22 00:01:02;;;;;;;12.90;6.22;;;;;;;18.23;52.12;102009.28;4985166;28;20070;-66
2022/05/22 00:03:27;;;;;;;8.98;5.25;;;;;;;18.33;52.32;102014.91;4974011;28;20042;-65
2022/05/22 00:05:53;;;;;;;9.90;5.70;;;;;;;18.28;51.34;102008.53;4973281;28;20054;-65
2022/05/22 00:08:19;;;;;;;13.05;6.43;;;;;;;18.19;51.66;102002.69;4972657;28;20054;-66
2022/05/22 00:10:45;;;;;;;13.85;5.70;;;;;;;18.06;51.78;101996.75;4990142;28;20493;-64
2022/05/22 00:13:10;;;;;;;14.13;5.78;;;;;;;18.08;52.02;102003.56;4992902;28;20117;-65
2022/05/22 00:16:36;;;;;;;10.93;5.97;;;;;;;17.95;51.72;102000.34;4992676;28;20650;-64
2022/05/22 00:18:21;;;;;;;11.85;5.35;;;;;;;17.96;51.69;101996.56;4992818;28;20085;-65
2022/05/22 00:20:46;;;;;;;14.30;6.28;;;;;;;17.85;52.33;101990.13;4991951;28;20050;-65
2022/05/22 00:23:12;;;;;;;14.43;5.78;;;;;;;17.83;52.38;101999.59;4992500;28;20053;-66
2022/05/22 00:25:37;;;;;;;10.75;5.57;;;;;;;17.87;52.57;101985.25;4993116;28;20034;-64
2022/05/22 00:28:03;;;;;;;11.10;5.22;;;;;;;17.88;52.28;101986.94;4992840;28;20035;-68
2022/05/22 00:30:28;;;;;;;11.35;6.13;;;;;;;17.88;52.57;101986.94;4991921;28;20038;-66
2022/05/22 00:32:54;;;;;;;12.68;5.75;;;;;;;17.91;52.20;101977.44;4992605;28;20491;-66
2022/05/22 00:35:19;;;;;;;9.32;5.63;;;;;;;17.65;53.07;101976.16;4992388;28;20037;-65
2022/05/22 00:37:44;;;;;;;14.05;5.63;;;;;;;17.83;52.67;101977.84;4993016;28;20038;-66
2022/05/22 00:40:10;;;;;;;16.13;5.22;;;;;;;17.71;52.75;101969.75;4991792;28;20302;-66
2022/05/22 00:42:36;;;;;;;14.10;6.25;;;;;;;17.66;52.40;101983.25;4992421;28;20409;-66
2022/05/22 00:45:01;;;;;;;9.95;6.05;;;;;;;17.58;53.01;101986.38;4992167;28;20055;-66
2022/05/22 00:47:27;;;;;;;9.75;5.20;;;;;;;17.49;53.86;101991.38;4992282;28;20034;-65
2022/05/22 00:49:59;;;;;;;10.38;5.43;;;;;;;17.64;53.14;101982.69;4991953;28;20100;-68
2022/05/22 00:52:41;;;;;;;15.55;6.97;;;;;;;17.64;53.12;101979.97;4992015;28;20054;-66
2022/05/22 00:55:22;;;;;;;10.38;5.20;;;;;;;17.37;53.77;101985.16;4992085;28;20046;-64
2022/05/22 00:57:50;;;;;;;7.82;5.18;;;;;;;17.40;53.56;101987.38;4972527;28;20031;-66
2022/05/22 01:00:19;;;;;;;16.60;6.07;;;;;;;17.35;53.80;101989.16;4972250;28;20049;-63
2022/05/22 01:05:32;;;;;;;9.70;5.18;;;;;;;17.34;53.41;101985.59;4972645;28;20450;-65
2022/05/22 01:07:58;;;;;;;12.23;5.32;;;;;;;17.22;54.17;101986.69;4972488;28;20101;-65
2022/05/22 01:10:32;;;;;;;9.15;4.47;;;;;;;17.26;54.07;101986.00;4989501;28;20034;-65
2022/05/22 01:12:59;;;;;;;9.85;5.35;;;;;;;17.33;53.96;101975.81;4991741;28;20582;-65
2022/05/22 01:15:25;;;;;;;7.22;4.97;;;;;;;17.30;53.70;101978.19;4991575;28;20065;-65
2022/05/22 01:17:51;;;;;;;9.77;5.65;;;;;;;17.20;53.56;101977.97;4991844;28;20089;-65
2022/05/22 01:20:16;;;;;;;12.77;5.30;;;;;;;17.29;53.51;101973.81;4991338;28;20293;-65
2022/05/22 01:22:42;;;;;;;14.07;5.00;;;;;;;17.26;53.66;101968.84;4991709;28;20021;-63
2022/05/22 01:25:09;;;;;;;9.05;5.43;;;;;;;17.23;53.56;101975.63;4991517;28;20046;-66
2022/05/22 01:27:35;;;;;;;10.05;5.20;;;;;;;17.18;53.71;101983.66;4991649;28;20034;-65
2022/05/22 01:30:12;;;;;;;10.43;5.03;;;;;;;17.13;53.14;101980.84;4991281;28;20034;-65
2022/05/22 01:32:40;;;;;;;12.30;5.82;;;;;;;17.15;53.64;101970.56;5000290;28;20030;-64
2022/05/22 01:35:07;;;;;;;9.27;5.10;;;;;;;17.16;53.73;101961.34;4991404;28;20042;-66
2022/05/22 01:37:33;;;;;;;7.63;4.38;;;;;;;17.17;53.58;101965.72;4991509;28;20034;-65
2022/05/22 01:39:58;;;;;;;8.13;4.97;;;;;;;17.16;53.30;101965.97;4990643;28;20047;-66
2022/05/22 01:42:23;;;;;;;10.43;4.55;;;;;;;17.27;53.48;101965.09;4991113;28;20494;-65
2022/05/22 01:44:49;;;;;;;8.60;4.68;;;;;;;17.19;53.21;101966.31;4991158;28;20085;-65
2022/05/22 01:47:14;;;;;;;11.30;4.40;;;;;;;17.19;53.50;101962.75;4991391;28;20049;-65
2022/05/22 01:49:40;;;;;;;10.48;4.30;;;;;;;17.19;53.25;101971.72;4991485;28;20445;-65
2022/05/22 01:52:06;;;;;;;9.95;5.05;;;;;;;17.19;52.93;101973.63;4990653;28;20295;-65
2022/05/22 01:54:31;;;;;;;12.02;5.05;;;;;;;17.14;53.50;101976.25;4989900;28;20042;-66
2022/05/22 01:56:57;;;;;;;7.53;4.72;;;;;;;17.22;52.90;101973.13;4990897;28;20057;-64
2022/05/22 01:59:22;;;;;;;10.52;5.03;;;;;;;17.09;53.00;101976.13;4991277;28;20038;-64
2022/05/22 02:01:48;;;;;;;11.40;5.03;;;;;;;17.10;54.69;101973.16;4990816;28;20018;-64
2022/05/22 02:04:13;;;;;;;13.43;5.75;;;;;;;17.13;53.94;101978.13;4991048;28;20038;-65
2022/05/22 02:09:22;;;;;;;8.52;4.88;;;;;;;17.18;53.69;101970.06;4990732;28;20038;-65
2022/05/22 02:11:48;;;;;;;13.05;5.32;;;;;;;17.20;52.81;101975.25;4990512;28;20034;-65
2022/05/22 02:14:14;;;;;;;13.15;5.38;;;;;;;17.23;52.68;101967.47;4990876;28;20053;-65
2022/05/22 02:16:39;;;;;;;10.07;5.03;;;;;;;17.13;53.53;101959.13;4991058;28;20037;-64
2022/05/22 02:19:05;;;;;;;15.80;5.22;;;;;;;17.19;53.26;101951.88;4991369;28;20038;-65
2022/05/22 02:21:32;;;;;;;11.95;5.45;;;;;;;17.24;52.89;101950.09;4993202;28;20045;-65
2022/05/22 02:23:57;;;;;;;8.20;4.75;;;;;;;17.24;52.73;101952.81;4994179;28;20502;-65
2022/05/22 02:26:23;;;;;;;10.10;4.82;;;;;;;17.18;52.81;101945.63;4994873;28;20031;-65
2022/05/22 02:28:48;;;;;;;12.02;5.95;;;;;;;17.18;52.91;101939.34;4995286;28;20038;-64
2022/05/22 02:31:14;;;;;;;13.63;5.40;;;;;;;17.14;52.78;101940.94;4994275;28;20402;-65
2022/05/22 02:33:40;;;;;;;11.65;4.82;;;;;;;17.03;53.16;101928.19;4994559;28;20524;-65
2022/05/22 02:36:06;;;;;;;11.07;5.38;;;;;;;16.92;53.42;101921.75;4994537;28;20038;-64
2022/05/22 02:38:33;;;;;;;7.45;4.80;;;;;;;16.81;53.38;101909.03;4994412;28;20092;-65
2022/05/22 02:40:58;;;;;;;12.63;4.97;;;;;;;16.81;53.54;101905.47;4994217;28;20043;-66
2022/05/22 02:43:24;;;;;;;12.55;5.95;;;;;;;16.87;53.79;101918.09;4994772;28;20371;-66
2022/05/22 02:45:50;;;;;;;10.60;5.85;;;;;;;16.84;53.75;101918.59;4994570;28;20061;-66
2022/05/22 02:48:15;;;;;;;6.90;5.20;;;;;;;16.85;53.77;101921.03;4994393;28;20038;-65
2022/05/22 02:50:41;;;;;;;13.98;5.95;;;;;;;16.83;53.71;101922.34;4994208;28;20034;-65
2022/05/22 02:53:08;;;;;;;10.02;5.32;;;;;;;16.84;53.80;101924.00;4994066;28;20065;-65
2022/05/22 02:55:33;;;;;;;9.82;5.75;;;;;;;16.65;54.63;101920.63;5009715;28;20038;-64
2022/05/22 02:57:59;;;;;;;8.50;5.30;;;;;;;16.68;53.60;101922.88;4994221;28;20039;-65
2022/05/22 03:00:30;;;;;;;10.27;5.75;;;;;;;16.68;54.02;101912.84;4993961;28;20042;-66
2022/05/22 03:02:56;;;;;;;10.20;5.18;;;;;;;16.75;53.62;101912.69;4993980;28;20065;-66
2022/05/22 03:05:24;;;;;;;9.32;5.03;;;;;;;16.74;54.02;101913.78;4994236;28;20059;-64
2022/05/22 03:07:49;;;;;;;12.48;4.95;;;;;;;16.67;53.74;101921.19;4994372;28;20654;-64
2022/05/22 03:10:17;;;;;;;6.97;5.60;;;;;;;16.66;53.81;101922.28;4993595;28;20042;-65
2022/05/22 03:12:43;;;;;;;9.60;5.25;;;;;;;16.71;53.82;101914.22;4993810;28;20035;-65
2022/05/22 03:15:12;;;;;;;7.70;5.15;;;;;;;16.70;53.71;101926.16;4993945;28;20034;-65
2022/05/22 03:17:38;;;;;;;11.45;5.05;;;;;;;16.66;53.66;101927.72;4994015;28;20402;-64
2022/05/22 03:20:04;;;;;;;6.15;4.65;;;;;;;16.62;53.68;101921.94;4991921;28;20034;-65
2022/05/22 03:22:30;;;;;;;6.55;4.57;;;;;;;16.71;53.97;101921.56;4993903;28;20018;-64
2022/05/22 03:24:55;;;;;;;6.70;4.70;;;;;;;16.67;53.96;101913.88;4992512;28;20038;-66
2022/05/22 03:27:21;;;;;;;10.25;5.30;;;;;;;16.69;53.77;101910.94;4993709;28;20061;-66
2022/05/22 03:29:48;;;;;;;7.75;4.82;;;;;;;16.46;55.01;101916.38;4993559;28;20039;-65
2022/05/22 03:32:14;;;;;;;8.75;5.63;;;;;;;16.53;54.34;101909.78;4993343;28;20486;-65
2022/05/22 03:34:41;;;;;;;8.68;5.63;;;;;;;16.59;54.16;101913.44;4994185;28;20481;-66
2022/05/22 03:37:06;;;;;;;7.57;5.05;;;;;;;16.60;54.45;101910.50;4993324;28;20498;-65
2022/05/22 03:39:32;;;;;;;8.27;5.57;;;;;;;16.53;54.42;101911.66;4993009;28;20050;-64
2022/05/22 03:41:58;;;;;;;11.68;5.75;;;;;;;16.68;54.42;101902.00;4993041;28;20038;-65
2022/05/22 03:44:24;;;;;;;7.22;5.95;;;;;;;16.55;54.61;101909.53;4993118;28;20390;-65
2022/05/22 03:46:50;;;;;;;10.52;5.88;;;;;;;16.63;54.87;101910.00;4994142;28;20394;-64
2022/05/22 03:49:15;;;;;;;7.65;5.30;;;;;;;16.62;54.32;101902.09;4993270;28;20027;-65
2022/05/22 03:51:42;;;;;;;9.68;5.57;;;;;;;16.76;54.13;101891.81;4992979;28;20045;-65
2022/05/22 03:54:08;;;;;;;8.15;5.75;;;;;;;16.54;55.02;101905.19;4993339;28;20113;-65
2022/05/22 03:56:33;;;;;;;10.70;5.53;;;;;;;16.74;54.60;101893.94;4993201;28;20046;-66
2022/05/22 03:58:59;;;;;;;10.25;5.35;;;;;;;16.62;54.91;101892.09;4993390;28;20045;-65
2022/05/22 04:01:24;;;;;;;10.75;5.78;;;;;;;16.61;54.63;101900.44;4991445;28;20539;-64
2022/05/22 04:03:50;;;;;;;8.10;5.57;;;;;;;16.75;54.65;101890.97;4992960;28;20542;-66
2022/05/22 04:06:15;;;;;;;9.00;5.82;;;;;;;16.91;53.76;101887.50;4993048;28;20411;-65
2022/05/22 04:08:41;;;;;;;11.77;5.68;;;;;;;16.77;54.74;101893.44;4992663;28;20038;-65
2022/05/22 04:11:07;;;;;;;6.53;5.32;;;;;;;16.98;53.93;101895.53;4992690;28;20034;-64
2022/05/22 04:13:34;;;;;;;11.95;6.30;;;;;;;17.07;53.49;101894.06;4993200;28;20088;-65
2022/05/22 04:15:59;;;;;;;7.93;5.82;;;;;;;17.00;53.97;101887.97;4992557;28;20137;-64
2022/05/22 04:18:25;;;;;;;8.35;5.78;;;;;;;17.18;53.43;101894.00;4993110;28;20042;-63
2022/05/22 04:20:51;;;;;;;12.02;5.28;;;;;;;17.27;53.11;101895.28;4992093;28;20035;-64
2022/05/22 04:26:00;;;;;;;8.93;5.97;;;;;;;17.26;53.28;101892.78;4992650;28;20085;-65
2022/05/22 04:28:29;;;;;;;9.98;5.10;;;;;;;17.21;53.31;101893.53;4993025;28;20026;-64
2022/05/22 04:30:55;;;;;;;10.85;4.38;;;;;;;17.27;53.69;101894.44;4992119;28;20498;-66
2022/05/22 04:33:20;;;;;;;7.30;4.28;;;;;;;17.35;53.10;101889.47;4992564;28;20034;-65
2022/05/22 04:35:47;;;;;;;11.02;5.47;;;;;;;17.08;54.21;101899.25;4992451;28;20045;-65
2022/05/22 04:38:13;;;;;;;11.73;6.10;;;;;;;17.28;53.78;101894.19;4992516;28;20399;-65
2022/05/22 04:40:39;;;;;;;14.73;6.90;;;;;;;17.38;53.63;101888.94;4992112;28;20034;-63
2022/05/22 04:43:05;;;;;;;8.57;4.45;;;;;;;17.32;54.31;101891.81;4991884;28;20041;-65
2022/05/22 04:45:32;;;;;;;12.70;5.90;;;;;;;17.39;54.20;101893.31;4992072;28;20065;-65
2022/05/22 04:47:58;;;;;;;8.05;4.97;;;;;;;17.35;54.02;101886.75;4992255;28;20461;-65
2022/05/22 04:50:24;;;;;;;5.68;4.97;;;;;;;17.42;53.93;101881.13;5007157;28;20042;-66
2022/05/22 04:52:50;;;;;;;5.35;4.82;;;;;;;17.52;53.34;101890.31;4992591;28;20408;-65
2022/05/22 04:55:15;;;;;;;8.05;5.18;;;;;;;17.63;52.77;101890.50;4991862;28;20038;-65
2022/05/22 04:57:40;;;;;;;12.73;5.35;;;;;;;17.47;53.62;101894.81;4992299;28;20034;-65
2022/05/22 05:00:11;;;;;;;8.00;5.93;;;;;;;17.61;53.64;101893.44;4991435;28;20073;-64
2022/05/22 05:02:37;;;;;;;11.30;5.38;;;;;;;17.60;53.91;101890.97;4992108;28;20038;-65
2022/05/22 05:05:10;;;;;;;8.93;5.40;;;;;;;17.74;53.19;101890.44;4991748;28;20042;-66
2022/05/22 05:07:40;;;;;;;9.80;5.32;;;;;;;17.81;52.68;101893.00;4992119;28;20105;-64
2022/05/22 05:10:07;;;;;;;7.45;4.95;;;;;;;17.69;52.90;101884.09;4991549;28;20043;-64
2022/05/22 05:12:36;;;;;;;9.52;4.75;;;;;;;17.79;53.31;101889.69;4991513;28;20125;-64
2022/05/22 05:15:02;;;;;;;9.20;5.82;;;;;;;17.76;53.94;101888.28;4991191;28;20062;-63
2022/05/22 05:17:28;;;;;;;14.00;5.50;;;;;;;17.83;53.10;101891.66;4991849;28;20414;-67
2022/05/22 05:19:53;;;;;;;12.02;5.45;;;;;;;17.70;54.15;101894.72;4991462;28;20030;-65
2022/05/22 05:22:19;;;;;;;14.40;5.80;;;;;;;18.01;52.50;101899.56;4991638;28;20030;-64
2022/05/22 05:24:44;;;;;;;9.63;4.82;;;;;;;18.08;52.68;101896.69;4991295;28;20039;-63
2022/05/22 05:27:10;;;;;;;11.65;5.07;;;;;;;17.81;52.69;101903.88;4991508;28;20039;-64
2022/05/22 05:29:35;;;;;;;13.48;5.70;;;;;;;17.62;53.40;101900.53;4991195;28;20046;-63
2022/05/22 05:32:03;;;;;;;7.95;4.57;;;;;;;17.94;52.73;101914.41;4991008;28;20383;-66
2022/05/22 05:34:28;;;;;;;9.13;5.32;;;;;;;17.68;53.70;101907.72;4992007;28;20037;-65
2022/05/22 05:36:54;;;;;;;7.35;4.53;;;;;;;18.05;52.92;101914.31;4991256;28;20035;-64
2022/05/22 05:39:19;;;;;;;7.47;4.55;;;;;;;18.33;51.64;101914.22;4990736;28;20053;-66
2022/05/22 05:41:45;;;;;;;9.35;4.93;;;;;;;18.20;52.08;101914.53;4990967;28;20446;-65
2022/05/22 05:44:10;;;;;;;16.98;6.15;;;;;;;18.33;51.43;101911.47;4991382;28;20057;-66
2022/05/22 05:46:37;;;;;;;13.95;5.78;;;;;;;18.73;51.00;101905.78;4991267;28;20089;-64
2022/05/22 05:49:04;;;;;;;12.23;6.05;;;;;;;18.82;50.47;101898.81;4991045;28;20465;-65
2022/05/22 05:51:30;;;;;;;11.65;4.22;;;;;;;18.79;51.34;101907.47;4991087;28;20038;-65
2022/05/22 05:53:55;;;;;;;6.55;4.35;;;;;;;18.99;50.61;101896.00;4990035;28;20415;-64
2022/05/22 05:56:21;;;;;;;9.80;5.00;;;;;;;18.78;51.29;101897.69;4990941;28;20046;-65
2022/05/22 05:58:47;;;;;;;8.02;5.15;;;;;;;18.93;50.96;101903.31;4991484;28;20042;-66
2022/05/22 06:01:14;;;;;;;16.55;5.40;;;;;;;19.09;50.53;101907.03;4990471;28;20372;-65
2022/05/22 06:03:39;;;;;;;6.00;4.18;;;;;;;19.25;50.44;101908.84;4990876;28;20506;-63
2022/05/22 06:06:09;;;;;;;9.10;3.75;;;;;;;19.33;49.96;101905.69;4990548;28;20118;-64
2022/05/22 06:08:36;;;;;;;9.23;4.70;;;;;;;19.30;51.13;101895.28;4990542;28;20038;-63
2022/05/22 06:11:01;;;;;;;9.70;4.65;;;;;;;19.41;50.39;101894.31;4990683;28;20569;-64
2022/05/22 06:13:27;;;;;;;11.18;5.40;;;;;;;19.47;49.73;101890.56;4991313;28;20042;-65
2022/05/22 06:15:52;;;;;;;12.60;5.00;;;;;;;19.61;49.47;101883.63;4990249;28;20034;-65
2022/05/22 06:18:19;;;;;;;7.40;3.75;;;;;;;19.83;48.75;101886.25;4990968;28;20042;-65
2022/05/22 06:20:44;;;;;;;11.68;4.05;;;;;;;19.87;48.45;101890.09;4990378;28;20038;-66
2022/05/22 06:23:09;;;;;;;13.93;3.45;;;;;;;19.70;49.20;101892.94;4990327;28;20482;-63
2022/05/22 06:25:35;;;;;;;10.75;3.78;;;;;;;19.87;49.00;101893.63;4991076;28;20042;-65
2022/05/22 06:28:02;;;;;;;8.18;3.33;;;;;;;20.02;48.83;101893.75;4990517;28;20077;-66
2022/05/22 06:30:27;;;;;;;14.35;4.28;;;;;;;20.28;48.12;101888.50;4990263;28;20049;-64
2022/05/22 06:32:53;;;;;;;9.63;3.70;;;;;;;19.84;49.01;101894.16;4990593;28;20026;-64
2022/05/22 06:35:19;;;;;;;6.60;3.92;;;;;;;19.64;49.68;101887.72;4990655;28;20088;-64
2022/05/22 06:37:44;;;;;;;6.50;3.53;;;;;;;20.12;48.76;101893.00;4991160;28;20033;-66
2022/05/22 06:40:11;;;;;;;7.97;4.22;;;;;;;20.05;48.63;101897.84;4989310;28;20417;-66
2022/05/22 06:42:42;;;;;;;11.85;4.15;;;;;;;20.44;47.58;101898.44;4990411;28;20046;-64
2022/05/22 06:45:11;;;;;;;18.17;4.68;;;;;;;20.25;48.31;101899.94;4990386;28;20104;-64
2022/05/22 06:47:37;;;;;;;12.75;4.35;;;;;;;20.53;47.31;101896.81;4990241;28;20034;-64
2022/05/22 06:50:06;;;;;;;5.90;3.80;;;;;;;20.40;48.71;101903.56;4990047;28;20035;-64
2022/05/22 06:52:32;;;;;;;11.07;3.50;;;;;;;19.65;50.76;101898.38;4990960;28;20030;-64
2022/05/22 06:55:00;;;;;;;8.23;4.05;;;;;;;20.53;48.21;101903.13;4990219;28;20125;-65
2022/05/22 06:57:26;;;;;;;10.18;4.00;;;;;;;20.60;48.45;101892.75;4990392;28;20065;-64
2022/05/22 06:59:55;;;;;;;14.68;4.47;;;;;;;20.71;48.25;101899.09;4990017;28;20040;-64
2022/05/22 07:02:20;;;;;;;14.02;3.97;;;;;;;21.13;47.57;101894.34;4990701;28;20086;-65
2022/05/22 07:04:45;;;;;;;14.05;3.95;;;;;;;21.00;46.38;101897.56;4990910;28;20086;-65
2022/05/22 07:07:11;;;;;;;15.65;4.75;;;;;;;21.24;44.98;101887.00;4993707;28;20041;-63
2022/05/22 07:09:37;;;;;;;15.73;3.80;;;;;;;21.20;44.42;101883.16;4993529;28;20054;-65
2022/05/22 07:12:07;;;;;;;9.43;3.75;;;;;;;20.89;45.37;101885.78;4993493;28;20038;-64
2022/05/22 07:14:33;;;;;;;12.57;4.78;;;;;;;20.91;45.50;101889.06;4993739;28;20402;-65
2022/05/22 07:17:02;;;;;;;15.88;4.05;;;;;;;21.41;45.06;101885.66;4993793;28;20031;-65
2022/05/22 07:19:27;;;;;;;10.23;4.32;;;;;;;21.28;45.79;101886.19;4993338;28;20398;-64
2022/05/22 07:21:53;;;;;;;14.55;3.95;;;;;;;21.41;45.68;101880.19;4993172;28;20030;-65
2022/05/22 07:24:18;;;;;;;8.43;4.07;;;;;;;21.63;45.32;101877.19;4992754;28;20038;-64
2022/05/22 07:26:44;;;;;;;11.95;3.97;;;;;;;20.85;45.61;101876.47;4993434;28;20041;-63
2022/05/22 07:29:09;;;;;;;8.82;3.55;;;;;;;20.79;47.13;101879.47;4983337;28;20483;-64
2022/05/22 07:31:35;;;;;;;8.38;4.90;;;;;;;21.31;45.42;101880.19;4987006;28;20040;-64
2022/05/22 07:34:01;;;;;;;10.38;3.70;;;;;;;21.58;45.53;101878.00;4993085;28;20502;-64
2022/05/22 07:36:26;;;;;;;11.63;4.20;;;;;;;21.87;44.84;101875.59;5007917;28;20038;-65
2022/05/22 07:38:52;;;;;;;14.95;4.15;;;;;;;21.70;45.13;101875.00;4984616;28;20572;-66
2022/05/22 07:41:18;;;;;;;13.57;4.15;;;;;;;21.99;44.34;101878.03;5001683;28;20375;-66
2022/05/22 07:43:44;;;;;;;14.43;4.57;;;;;;;22.20;43.75;101879.63;4993436;28;20025;-63
2022/05/22 07:46:13;;;;;;;12.73;4.10;;;;;;;22.23;42.31;101879.09;4983078;28;20039;-66
2022/05/22 07:48:39;;;;;;;14.65;3.05;;;;;;;21.61;43.28;101873.91;4983908;28;20054;-64
2022/05/22 07:51:05;;;;;;;14.95;4.15;;;;;;;21.79;43.50;101873.38;4981564;28;20030;-66
2022/05/22 07:53:31;;;;;;;22.88;3.72;;;;;;;21.37;42.14;101878.25;4992584;28;20030;-66
2022/05/22 07:55:56;;;;;;;9.20;3.58;;;;;;;22.28;41.33;101870.84;4992459;28;20030;-64
2022/05/22 07:58:23;;;;;;;10.43;4.05;;;;;;;22.59;41.01;101873.25;4992875;28;20034;-64
2022/05/22 08:00:53;;;;;;;8.85;2.70;;;;;;;22.54;40.16;101870.47;4987025;28;20535;-65
2022/05/22 08:03:20;;;;;;;10.13;2.63;;;;;;;23.10;39.49;101871.09;5007677;28;20041;-65
2022/05/22 08:05:46;;;;;;;8.35;2.22;;;;;;;22.43;38.70;101863.41;4992630;28;20077;-65
2022/05/22 08:08:12;;;;;;;9.32;2.10;;;;;;;22.69;38.88;101872.38;4986424;28;20053;-65
2022/05/22 08:10:40;;;;;;;8.13;1.88;;;;;;;22.15;38.62;101869.50;4992127;28;20030;-66
2022/05/22 08:13:07;;;;;;;9.20;3.53;;;;;;;23.08;37.18;101873.28;4989306;28;20038;-64
2022/05/22 08:15:34;;;;;;;11.90;3.47;;;;;;;21.82;39.64;101873.66;4986931;28;20434;-65
2022/05/22 08:18:00;;;;;;;7.00;2.38;;;;;;;21.76;40.92;101865.69;4989972;28;20101;-65
2022/05/22 08:20:27;;;;;;;6.85;1.90;;;;;;;23.17;38.41;101868.03;4990005;28;20835;-64
2022/05/22 08:22:58;;;;;;;6.95;2.13;;;;;;;23.38;37.36;101864.91;4989031;28;20092;-66
2022/05/22 08:25:26;;;;;;;8.98;3.17;;;;;;;23.71;38.17;101856.94;4986871;28;20057;-66
2022/05/22 08:27:53;;;;;;;5.68;2.67;;;;;;;23.61;38.26;101857.84;4986830;28;20026;-65
2022/05/22 08:30:20;;;;;;;6.35;2.45;;;;;;;23.45;37.94;101859.91;4986772;28;20042;-65
2022/05/22 08:32:47;;;;;;;11.20;4.15;;;;;;;23.48;38.26;101851.09;4983236;28;20031;-65
2022/05/22 08:35:20;;;;;;;7.30;2.65;;;;;;;23.75;37.61;101850.59;4981172;28;20046;-65
2022/05/22 08:37:45;;;;;;;7.85;2.42;;;;;;;23.08;38.79;101843.13;4983401;28;20019;-65
2022/05/22 08:40:15;;;;;;;11.88;2.58;;;;;;;24.05;37.40;101847.59;4980721;28;20050;-64
2022/05/22 08:42:43;;;;;;;8.85;2.20;;;;;;;23.93;37.20;101843.56;4982539;28;20118;-65
2022/05/22 08:45:32;;;;;;;9.40;2.60;;;;;;;23.71;37.05;101844.03;4981521;28;20038;-64
2022/05/22 08:48:06;;;;;;;8.98;2.88;;;;;;;23.38;36.04;101842.94;4982102;28;20129;-65
2022/05/22 08:50:33;;;;;;;9.60;2.58;;;;;;;22.70;38.46;101843.91;4986388;28;20038;-65
2022/05/22 08:53:40;;;;;;;8.40;2.58;;;;;;;23.85;37.64;101846.94;5001759;28;20026;-65
2022/05/22 08:59:12;;;;;;;12.10;2.80;;;;;;;24.84;35.70;101837.88;4961625;28;20089;-64
2022/05/22 09:01:52;;;;;;;8.80;2.33;;;;;;;24.79;35.58;101830.50;4959299;28;20565;-63
2022/05/22 09:04:33;;;;;;;3.53;1.50;;;;;;;25.22;34.45;101823.81;4961183;28;20616;-63
2022/05/22 09:07:17;;;;;;;11.45;1.92;;;;;;;24.99;34.42;101824.72;4960982;28;20090;-67
2022/05/22 09:09:45;;;;;;;15.63;2.42;;;;;;;24.74;33.61;101821.50;4959064;28;20046;-63
2022/05/22 09:12:51;;;;;;;9.45;1.75;;;;;;;25.01;33.89;101817.00;4960288;28;20039;-65
2022/05/22 09:15:34;;;;;;;5.40;1.67;;;;;;;24.69;34.55;101808.59;4959935;28;20514;-66
2022/05/22 09:18:06;;;;;;;7.78;1.50;;;;;;;25.20;34.99;101800.44;4959230;28;20031;-65
2022/05/22 09:20:48;;;;;;;8.73;2.38;;;;;;;25.14;33.77;101801.66;4959311;28;20027;-65
2022/05/22 09:23:26;;;;;;;8.45;1.67;;;;;;;25.37;34.56;101792.50;4962430;28;20066;-64
2022/05/22 09:26:07;;;;;;;5.75;1.65;;;;;;;24.84;34.96;101791.13;4958913;28;20047;-66
2022/05/22 09:28:54;;;;;;;7.90;1.33;;;;;;;25.81;33.36;101794.75;4942745;28;20082;-64
2022/05/22 09:31:50;;;;;;;7.63;1.83;;;;;;;25.85;32.62;101784.75;4957932;28;20074;-65
2022/05/22 09:34:24;;;;;;;11.02;2.10;;;;;;;25.16;33.37;101774.66;4974067;28;20070;-65
2022/05/22 09:37:11;;;;;;;12.75;1.73;;;;;;;25.31;32.99;101773.59;4987894;28;20050;-64
2022/05/22 09:39:52;;;;;;;6.53;1.88;;;;;;;25.17;32.11;101776.31;4988750;28;20096;-67
2022/05/22 09:42:43;;;;;;;10.77;2.05;;;;;;;25.71;32.81;101770.97;4986124;28;20050;-67
2022/05/22 09:45:32;;;;;;;6.60;1.52;;;;;;;25.81;31.30;101758.94;4987302;28;20026;-66
2022/05/22 09:48:18;;;;;;;6.18;1.52;;;;;;;24.82;32.56;101752.94;4988145;28;20046;-65
2022/05/22 09:51:14;;;;;;;4.30;1.42;;;;;;;26.08;31.37;101757.03;4999754;28;20034;-66
2022/05/22 09:53:59;;;;;;;6.63;1.80;;;;;;;25.99;31.14;101758.03;4986667;28;20521;-65
2022/05/22 09:56:24;;;;;;;8.85;1.55;;;;;;;25.89;32.39;101761.00;4983747;28;20069;-65
2022/05/22 09:59:15;;;;;;;6.47;1.38;;;;;;;26.32;30.66;101747.75;4981682;28;20118;-66
2022/05/22 10:01:45;;;;;;;6.65;1.63;;;;;;;25.19;31.07;101752.88;4979945;28;20206;-65
2022/05/22 10:04:28;;;;;;;6.25;1.42;;;;;;;25.42;32.10;101750.31;4979492;28;20517;-66
2022/05/22 10:07:28;;;;;;;7.57;2.30;;;;;;;25.84;32.25;101750.91;4979580;28;20031;-69
2022/05/22 10:10:24;;;;;;;7.85;2.65;;;;;;;25.70;32.15;101747.31;4982746;28;20525;-66
2022/05/22 10:12:53;;;;;;;10.10;1.70;;;;;;;25.79;31.35;101744.66;4982227;28;20026;-66
2022/05/22 10:15:28;;;;;;;8.65;1.90;;;;;;;25.72;31.29;101747.84;4985328;28;20066;-65
2022/05/22 10:18:28;;;;;;;9.73;2.03;;;;;;;26.62;31.03;101731.34;4986232;28;20119;-65
2022/05/22 10:21:15;;;;;;;8.20;1.60;;;;;;;26.69;32.08;101733.69;4978120;28;20051;-66
2022/05/22 10:24:15;;;;;;;8.30;1.88;;;;;;;27.23;32.29;101733.47;4982447;28;20432;-65
2022/05/22 10:27:22;;;;;;;7.83;1.80;;;;;;;26.79;30.26;101730.72;4977697;28;20055;-66
2022/05/22 10:29:56;;;;;;;5.15;1.30;;;;;;;27.32;31.47;101722.50;4963312;28;20469;-65
2022/05/22 10:32:28;;;;;;;5.63;1.50;;;;;;;27.27;31.24;101726.19;4963630;28;20039;-65
2022/05/22 10:35:03;;;;;;;14.60;2.42;;;;;;;27.28;30.18;101715.97;4963842;28;20049;-67
2022/05/22 10:37:34;;;;;;;6.60;1.60;;;;;;;27.95;29.69;101711.16;4963452;28;20042;-65
2022/05/22 10:40:04;;;;;;;6.22;1.60;;;;;;;26.81;32.48;101709.97;4963157;28;20062;-64
2022/05/22 10:42:47;;;;;;;8.80;1.80;;;;;;;27.64;29.71;101708.38;4967757;28;20075;-65
2022/05/22 10:45:32;;;;;;;6.57;1.23;;;;;;;27.96;28.57;101707.25;4966291;28;20047;-65
2022/05/22 10:48:09;;;;;;;7.75;1.48;;;;;;;27.86;29.04;101704.72;4967202;28;20480;-66
2022/05/22 10:50:35;;;;;;;8.20;1.60;;;;;;;28.19;29.20;101693.00;4966589;28;20039;-66
2022/05/22 10:53:01;;;;;;;5.45;1.48;;;;;;;28.77;28.26;101697.28;4967379;28;20167;-67
2022/05/22 10:55:31;;;;;;;3.00;1.00;;;;;;;28.32;28.13;101694.81;4959491;28;20091;-66
2022/05/22 10:58:01;;;;;;;5.50;1.15;;;;;;;28.42;28.56;101688.16;4967086;28;20074;-65
2022/05/22 11:00:27;;;;;;;5.75;1.50;;;;;;;27.62;27.80;101699.59;4966789;28;20047;-67
2022/05/22 11:02:53;;;;;;;6.18;1.45;;;;;;;28.36;27.66;101693.00;4967491;28;20422;-65
2022/05/22 11:05:27;;;;;;;5.78;1.15;;;;;;;28.80;27.83;101688.31;4966975;28;20050;-67
2022/05/22 11:07:55;;;;;;;6.55;1.27;;;;;;;28.52;27.80;101685.88;4981298;28;20079;-65
2022/05/22 11:10:35;;;;;;;5.78;1.45;;;;;;;28.15;27.20;101678.19;4981192;28;20050;-66
2022/05/22 11:13:03;;;;;;;4.03;1.50;;;;;;;28.13;27.35;101687.91;4980574;28;20141;-65
2022/05/22 11:15:31;;;;;;;5.90;1.40;;;;;;;27.83;25.66;101693.19;4979777;28;20031;-66
2022/05/22 11:18:22;;;;;;;10.32;1.50;;;;;;;27.74;26.79;101688.78;4978744;28;20035;-65
2022/05/22 11:20:55;;;;;;;9.18;1.90;;;;;;;28.03;27.65;101680.75;4979243;28;20035;-64
2022/05/22 11:23:47;;;;;;;4.00;1.50;;;;;;;27.49;28.24;101679.25;4978741;28;20191;-64
2022/05/22 11:26:31;;;;;;;8.75;2.53;;;;;;;28.16;29.36;101663.25;4980377;28;20498;-63
2022/05/22 11:29:19;;;;;;;7.00;1.40;;;;;;;28.41;28.08;101656.09;4987325;28;20058;-64
2022/05/22 11:32:05;;;;;;;5.65;1.42;;;;;;;28.80;28.14;101658.72;4978601;28;20398;-65
2022/05/22 11:35:23;;;;;;;9.60;1.80;;;;;;;29.30;28.36;101661.72;4986348;28;20046;-67
2022/05/22 11:38:10;;;;;;;4.30;1.35;;;;;;;29.27;25.89;101652.13;4933863;29;20060;-65
2022/05/22 11:40:48;;;;;;;7.47;1.85;;;;;;;29.74;26.83;101647.38;4938089;29;20051;-66
2022/05/22 11:43:24;;;;;;;7.25;2.03;;;;;;;29.95;25.73;101642.69;4927607;29;20504;-65
2022/05/22 11:46:04;;;;;;;8.80;2.08;;;;;;;30.01;25.59;101638.59;4929688;28;20459;-64